sensor_id;sensor_type;location;lat;lon;timestamp;P1;durP1;ratioP1;P2;durP2;ratioP2
20557;SDS011;10437;48.156;11.530;2022-08-21T00:00:04;3.35;;;1.40;;
20557;SDS011;10437;48.156;11.530;2022-08-21T00:02:36;5.60;;;1.52;;
20557;SDS011;10437;48.156;11.530;2022-08-21T00:05:03;6.82;;;1.55;;
20557;SDS011;10437;48.156;11.530;2022-08-21T00:07:31;2.17;;;1.60;;
20557;SDS011;10437;48.156;11.530;2022-08-21T00:10:00;1.80;;;1.50;;
20557;SDS011;10437;48.156;11.530;2022-08-21T00:12:27;5.45;;;1.52;;
20557;SDS011;10437;48.156;11.530;2022-08-21T00:14:55;6.53;;;1.67;;
20557;SDS011;10437;48.156;11.530;2022-08-21T00:17:22;1.90;;;1.30;;
20557;SDS011;10437;48.156;11.530;2022-08-21T00:19:49;4.68;;;1.50;;
20557;SDS011;10437;48.156;11.530;2022-08-21T00:22:16;2.25;;;1.40;;
20557;SDS011;10437;48.156;11.530;2022-08-21T00:24:44;2.83;;;1.45;;
20557;SDS011;10437;48.156;11.530;2022-08-21T00:27:12;3.35;;;1.40;;
20557;SDS011;10437;48.156;11.530;2022-08-21T00:29:39;1.80;;;1.30;;
20557;SDS011;10437;48.156;11.530;2022-08-21T00:32:06;2.15;;;1.55;;
20557;SDS011;10437;48.156;11.530;2022-08-21T00:34:33;3.45;;;1.60;;
20557;SDS011;10437;48.156;11.530;2022-08-21T00:37:01;1.77;;;1.38;;
20557;SDS011;10437;48.156;11.530;2022-08-21T00:39:28;2.08;;;1.63;;
20557;SDS011;10437;48.156;11.530;2022-08-21T00:41:55;1.88;;;1.30;;
20557;SDS011;10437;48.156;11.530;2022-08-21T00:44:23;1.60;;;1.35;;
20557;SDS011;10437;48.156;11.530;2022-08-21T00:46:50;2.08;;;1.50;;
20557;SDS011;10437;48.156;11.530;2022-08-21T00:49:17;4.57;;;1.20;;
20557;SDS011;10437;48.156;11.530;2022-08-21T00:51:46;3.90;;;1.48;;
20557;SDS011;10437;48.156;11.530;2022-08-21T00:54:15;8.23;;;1.33;;
20557;SDS011;10437;48.156;11.530;2022-08-21T00:56:44;2.75;;;1.02;;
20557;SDS011;10437;48.156;11.530;2022-08-21T00:59:15;4.70;;;1.23;;
20557;SDS011;10437;48.156;11.530;2022-08-21T01:01:44;4.28;;;1.17;;
20557;SDS011;10437;48.156;11.530;2022-08-21T01:04:11;2.08;;;1.48;;
20557;SDS011;10437;48.156;11.530;2022-08-21T01:06:38;2.33;;;1.20;;
20557;SDS011;10437;48.156;11.530;2022-08-21T01:09:06;1.80;;;1.15;;
20557;SDS011;10437;48.156;11.530;2022-08-21T01:11:33;1.33;;;1.10;;
20557;SDS011;10437;48.156;11.530;2022-08-21T01:14:01;3.05;;;1.35;;
20557;SDS011;10437;48.156;11.530;2022-08-21T01:16:28;1.75;;;1.17;;
20557;SDS011;10437;48.156;11.530;2022-08-21T01:18:57;1.90;;;1.25;;
20557;SDS011;10437;48.156;11.530;2022-08-21T01:21:26;1.67;;;1.30;;
20557;SDS011;10437;48.156;11.530;2022-08-21T01:23:54;1.67;;;1.30;;
20557;SDS011;10437;48.156;11.530;2022-08-21T01:26:24;1.48;;;1.38;;
20557;SDS011;10437;48.156;11.530;2022-08-21T01:28:54;3.58;;;1.55;;
20557;SDS011;10437;48.156;11.530;2022-08-21T01:31:25;2.63;;;1.10;;
20557;SDS011;10437;48.156;11.530;2022-08-21T01:33:53;2.65;;;1.20;;
20557;SDS011;10437;48.156;11.530;2022-08-21T01:36:22;2.40;;;1.30;;
20557;SDS011;10437;48.156;11.530;2022-08-21T01:38:51;2.28;;;1.33;;
20557;SDS011;10437;48.156;11.530;2022-08-21T01:41:18;1.70;;;1.10;;
20557;SDS011;10437;48.156;11.530;2022-08-21T01:43:45;6.93;;;1.40;;
20557;SDS011;10437;48.156;11.530;2022-08-21T01:46:12;2.75;;;1.33;;
20557;SDS011;10437;48.156;11.530;2022-08-21T01:48:40;1.38;;;1.15;;
20557;SDS011;10437;48.156;11.530;2022-08-21T01:51:08;3.90;;;1.08;;
20557;SDS011;10437;48.156;11.530;2022-08-21T01:53:35;1.95;;;1.10;;
20557;SDS011;10437;48.156;11.530;2022-08-21T01:56:06;3.10;;;0.95;;
20557;SDS011;10437;48.156;11.530;2022-08-21T01:58:34;1.30;;;0.95;;
20557;SDS011;10437;48.156;11.530;2022-08-21T02:01:02;2.78;;;1.10;;
20557;SDS011;10437;48.156;11.530;2022-08-21T02:03:29;2.65;;;1.30;;
20557;SDS011;10437;48.156;11.530;2022-08-21T02:05:56;1.75;;;1.27;;
20557;SDS011;10437;48.156;11.530;2022-08-21T02:08:24;2.33;;;1.20;;
20557;SDS011;10437;48.156;11.530;2022-08-21T02:10:51;1.60;;;1.25;;
20557;SDS011;10437;48.156;11.530;2022-08-21T02:13:20;2.80;;;1.30;;
20557;SDS011;10437;48.156;11.530;2022-08-21T02:15:47;1.70;;;1.10;;
20557;SDS011;10437;48.156;11.530;2022-08-21T02:18:14;1.42;;;1.08;;
20557;SDS011;10437;48.156;11.530;2022-08-21T02:20:42;1.92;;;1.40;;
20557;SDS011;10437;48.156;11.530;2022-08-21T02:23:11;2.28;;;1.17;;
20557;SDS011;10437;48.156;11.530;2022-08-21T02:25:38;3.17;;;1.38;;
20557;SDS011;10437;48.156;11.530;2022-08-21T02:28:07;1.75;;;1.38;;
20557;SDS011;10437;48.156;11.530;2022-08-21T02:30:37;2.83;;;1.20;;
20557;SDS011;10437;48.156;11.530;2022-08-21T02:33:06;1.73;;;1.30;;
20557;SDS011;10437;48.156;11.530;2022-08-21T02:35:34;1.38;;;1.10;;
20557;SDS011;10437;48.156;11.530;2022-08-21T02:38:07;2.08;;;1.40;;
20557;SDS011;10437;48.156;11.530;2022-08-21T02:40:36;1.50;;;1.30;;
20557;SDS011;10437;48.156;11.530;2022-08-21T02:43:05;2.10;;;1.42;;
20557;SDS011;10437;48.156;11.530;2022-08-21T02:45:33;1.90;;;1.27;;
20557;SDS011;10437;48.156;11.530;2022-08-21T02:48:03;3.65;;;1.20;;
20557;SDS011;10437;48.156;11.530;2022-08-21T02:50:34;2.45;;;1.17;;
20557;SDS011;10437;48.156;11.530;2022-08-21T02:53:02;1.40;;;1.15;;
20557;SDS011;10437;48.156;11.530;2022-08-21T02:55:33;1.20;;;1.10;;
20557;SDS011;10437;48.156;11.530;2022-08-21T02:58:02;5.95;;;1.20;;
20557;SDS011;10437;48.156;11.530;2022-08-21T03:00:30;3.72;;;1.27;;
20557;SDS011;10437;48.156;11.530;2022-08-21T03:02:58;1.35;;;1.15;;
20557;SDS011;10437;48.156;11.530;2022-08-21T03:05:27;3.65;;;1.20;;
20557;SDS011;10437;48.156;11.530;2022-08-21T03:07:57;1.35;;;1.02;;
20557;SDS011;10437;48.156;11.530;2022-08-21T03:10:24;1.60;;;1.20;;
20557;SDS011;10437;48.156;11.530;2022-08-21T03:12:52;6.45;;;1.15;;
20557;SDS011;10437;48.156;11.530;2022-08-21T03:15:20;1.75;;;1.20;;
20557;SDS011;10437;48.156;11.530;2022-08-21T03:17:48;2.95;;;1.20;;
20557;SDS011;10437;48.156;11.530;2022-08-21T03:20:18;3.67;;;1.35;;
20557;SDS011;10437;48.156;11.530;2022-08-21T03:22:49;1.40;;;1.25;;
20557;SDS011;10437;48.156;11.530;2022-08-21T03:25:16;1.67;;;1.40;;
20557;SDS011;10437;48.156;11.530;2022-08-21T03:27:43;1.23;;;1.10;;
20557;SDS011;10437;48.156;11.530;2022-08-21T03:30:11;3.53;;;1.10;;
20557;SDS011;10437;48.156;11.530;2022-08-21T03:32:38;2.67;;;1.17;;
20557;SDS011;10437;48.156;11.530;2022-08-21T03:35:06;2.53;;;1.20;;
20557;SDS011;10437;48.156;11.530;2022-08-21T03:37:33;2.10;;;1.05;;
20557;SDS011;10437;48.156;11.530;2022-08-21T03:40:02;1.58;;;1.30;;
20557;SDS011;10437;48.156;11.530;2022-08-21T03:42:29;2.38;;;1.35;;
20557;SDS011;10437;48.156;11.530;2022-08-21T03:44:57;1.73;;;1.40;;
20557;SDS011;10437;48.156;11.530;2022-08-21T03:47:24;4.32;;;1.17;;
20557;SDS011;10437;48.156;11.530;2022-08-21T03:49:51;1.85;;;1.13;;
20557;SDS011;10437;48.156;11.530;2022-08-21T03:52:19;2.08;;;1.10;;
20557;SDS011;10437;48.156;11.530;2022-08-21T03:54:46;1.70;;;1.20;;
20557;SDS011;10437;48.156;11.530;2022-08-21T03:57:16;3.20;;;1.30;;
20557;SDS011;10437;48.156;11.530;2022-08-21T03:59:43;8.50;;;1.55;;
20557;SDS011;10437;48.156;11.530;2022-08-21T04:02:11;2.10;;;1.50;;
20557;SDS011;10437;48.156;11.530;2022-08-21T04:04:42;2.50;;;1.30;;
20557;SDS011;10437;48.156;11.530;2022-08-21T04:07:09;1.65;;;1.20;;
20557;SDS011;10437;48.156;11.530;2022-08-21T04:09:36;3.15;;;1.20;;
20557;SDS011;10437;48.156;11.530;2022-08-21T04:12:04;2.70;;;1.30;;
20557;SDS011;10437;48.156;11.530;2022-08-21T04:14:33;2.25;;;1.50;;
20557;SDS011;10437;48.156;11.530;2022-08-21T04:17:00;2.95;;;1.33;;
20557;SDS011;10437;48.156;11.530;2022-08-21T04:19:27;1.38;;;1.27;;
20557;SDS011;10437;48.156;11.530;2022-08-21T04:21:54;4.22;;;1.40;;
20557;SDS011;10437;48.156;11.530;2022-08-21T04:24:22;1.73;;;1.25;;
20557;SDS011;10437;48.156;11.530;2022-08-21T04:26:49;1.88;;;1.52;;
20557;SDS011;10437;48.156;11.530;2022-08-21T04:29:16;2.03;;;1.48;;
20557;SDS011;10437;48.156;11.530;2022-08-21T04:31:45;4.00;;;1.65;;
20557;SDS011;10437;48.156;11.530;2022-08-21T04:34:12;1.73;;;1.58;;
20557;SDS011;10437;48.156;11.530;2022-08-21T04:36:39;2.83;;;1.38;;
20557;SDS011;10437;48.156;11.530;2022-08-21T04:39:06;1.52;;;1.20;;
20557;SDS011;10437;48.156;11.530;2022-08-21T04:41:33;2.70;;;1.33;;
20557;SDS011;10437;48.156;11.530;2022-08-21T04:44:01;1.90;;;1.30;;
20557;SDS011;10437;48.156;11.530;2022-08-21T04:46:29;2.53;;;1.30;;
20557;SDS011;10437;48.156;11.530;2022-08-21T04:48:57;4.45;;;1.58;;
20557;SDS011;10437;48.156;11.530;2022-08-21T04:51:25;3.22;;;1.40;;
20557;SDS011;10437;48.156;11.530;2022-08-21T04:53:56;1.67;;;1.27;;
20557;SDS011;10437;48.156;11.530;2022-08-21T04:56:27;5.00;;;1.60;;
20557;SDS011;10437;48.156;11.530;2022-08-21T04:58:58;3.10;;;1.45;;
20557;SDS011;10437;48.156;11.530;2022-08-21T05:01:28;5.03;;;1.35;;
20557;SDS011;10437;48.156;11.530;2022-08-21T05:03:58;1.52;;;1.42;;
20557;SDS011;10437;48.156;11.530;2022-08-21T05:06:27;2.63;;;1.70;;
20557;SDS011;10437;48.156;11.530;2022-08-21T05:08:56;1.40;;;1.02;;
20557;SDS011;10437;48.156;11.530;2022-08-21T05:11:24;2.13;;;1.70;;
20557;SDS011;10437;48.156;11.530;2022-08-21T05:13:51;2.72;;;1.42;;
20557;SDS011;10437;48.156;11.530;2022-08-21T05:16:18;2.65;;;1.20;;
20557;SDS011;10437;48.156;11.530;2022-08-21T05:18:45;1.50;;;1.33;;
20557;SDS011;10437;48.156;11.530;2022-08-21T05:21:14;1.95;;;1.40;;
20557;SDS011;10437;48.156;11.530;2022-08-21T05:23:41;5.38;;;1.48;;
20557;SDS011;10437;48.156;11.530;2022-08-21T05:26:08;2.85;;;1.50;;
20557;SDS011;10437;48.156;11.530;2022-08-21T05:28:35;5.32;;;1.42;;
20557;SDS011;10437;48.156;11.530;2022-08-21T05:31:03;3.22;;;1.60;;
20557;SDS011;10437;48.156;11.530;2022-08-21T05:33:30;1.35;;;1.25;;
20557;SDS011;10437;48.156;11.530;2022-08-21T05:35:58;2.67;;;1.58;;
20557;SDS011;10437;48.156;11.530;2022-08-21T05:38:26;5.22;;;1.60;;
20557;SDS011;10437;48.156;11.530;2022-08-21T05:40:53;2.63;;;1.50;;
20557;SDS011;10437;48.156;11.530;2022-08-21T05:43:21;2.13;;;1.60;;
20557;SDS011;10437;48.156;11.530;2022-08-21T05:45:48;2.08;;;1.52;;
20557;SDS011;10437;48.156;11.530;2022-08-21T05:48:16;2.22;;;1.33;;
20557;SDS011;10437;48.156;11.530;2022-08-21T05:50:44;2.03;;;1.35;;
20557;SDS011;10437;48.156;11.530;2022-08-21T05:53:12;1.50;;;1.20;;
20557;SDS011;10437;48.156;11.530;2022-08-21T05:55:42;2.70;;;1.40;;
20557;SDS011;10437;48.156;11.530;2022-08-21T05:58:10;1.48;;;1.13;;
20557;SDS011;10437;48.156;11.530;2022-08-21T06:00:37;2.22;;;1.20;;
20557;SDS011;10437;48.156;11.530;2022-08-21T06:03:04;2.30;;;1.40;;
20557;SDS011;10437;48.156;11.530;2022-08-21T06:05:37;2.35;;;1.35;;
20557;SDS011;10437;48.156;11.530;2022-08-21T06:08:04;2.08;;;1.45;;
20557;SDS011;10437;48.156;11.530;2022-08-21T06:10:31;3.72;;;1.27;;
20557;SDS011;10437;48.156;11.530;2022-08-21T06:12:59;1.92;;;1.38;;
20557;SDS011;10437;48.156;11.530;2022-08-21T06:15:26;3.22;;;1.30;;
20557;SDS011;10437;48.156;11.530;2022-08-21T06:17:53;2.17;;;1.30;;
20557;SDS011;10437;48.156;11.530;2022-08-21T06:20:21;1.52;;;1.40;;
20557;SDS011;10437;48.156;11.530;2022-08-21T06:22:48;1.52;;;1.15;;
20557;SDS011;10437;48.156;11.530;2022-08-21T06:25:15;1.98;;;1.45;;
20557;SDS011;10437;48.156;11.530;2022-08-21T06:27:43;2.70;;;1.45;;
20557;SDS011;10437;48.156;11.530;2022-08-21T06:30:12;2.13;;;1.30;;
20557;SDS011;10437;48.156;11.530;2022-08-21T06:32:39;4.88;;;1.90;;
20557;SDS011;10437;48.156;11.530;2022-08-21T06:35:07;1.98;;;1.50;;
20557;SDS011;10437;48.156;11.530;2022-08-21T06:37:34;3.47;;;1.77;;
20557;SDS011;10437;48.156;11.530;2022-08-21T06:40:02;2.28;;;1.30;;
20557;SDS011;10437;48.156;11.530;2022-08-21T06:42:29;1.90;;;1.50;;
20557;SDS011;10437;48.156;11.530;2022-08-21T06:44:57;2.75;;;1.60;;
20557;SDS011;10437;48.156;11.530;2022-08-21T06:47:25;4.43;;;1.27;;
20557;SDS011;10437;48.156;11.530;2022-08-21T06:49:52;3.38;;;1.90;;
20557;SDS011;10437;48.156;11.530;2022-08-21T06:52:20;3.63;;;1.73;;
20557;SDS011;10437;48.156;11.530;2022-08-21T06:54:47;4.85;;;1.70;;
20557;SDS011;10437;48.156;11.530;2022-08-21T06:57:15;3.05;;;1.80;;
20557;SDS011;10437;48.156;11.530;2022-08-21T06:59:42;1.95;;;1.52;;
20557;SDS011;10437;48.156;11.530;2022-08-21T07:02:09;3.72;;;1.80;;
20557;SDS011;10437;48.156;11.530;2022-08-21T07:04:38;3.65;;;2.22;;
20557;SDS011;10437;48.156;11.530;2022-08-21T07:07:05;2.55;;;1.65;;
20557;SDS011;10437;48.156;11.530;2022-08-21T07:09:32;2.92;;;1.65;;
20557;SDS011;10437;48.156;11.530;2022-08-21T07:11:59;2.67;;;1.48;;
20557;SDS011;10437;48.156;11.530;2022-08-21T07:14:26;4.00;;;2.00;;
20557;SDS011;10437;48.156;11.530;2022-08-21T07:16:53;3.55;;;1.77;;
20557;SDS011;10437;48.156;11.530;2022-08-21T07:19:20;6.47;;;2.10;;
20557;SDS011;10437;48.156;11.530;2022-08-21T07:21:49;2.85;;;1.60;;
20557;SDS011;10437;48.156;11.530;2022-08-21T07:24:16;3.17;;;1.80;;
20557;SDS011;10437;48.156;11.530;2022-08-21T07:26:43;2.28;;;1.50;;
20557;SDS011;10437;48.156;11.530;2022-08-21T07:29:11;4.15;;;1.88;;
20557;SDS011;10437;48.156;11.530;2022-08-21T07:31:38;3.28;;;1.70;;
20557;SDS011;10437;48.156;11.530;2022-08-21T07:34:05;2.97;;;1.67;;
20557;SDS011;10437;48.156;11.530;2022-08-21T07:36:33;3.05;;;1.70;;
20557;SDS011;10437;48.156;11.530;2022-08-21T07:39:01;4.07;;;1.90;;
20557;SDS011;10437;48.156;11.530;2022-08-21T07:41:29;3.30;;;1.80;;
20557;SDS011;10437;48.156;11.530;2022-08-21T07:43:57;3.10;;;1.48;;
20557;SDS011;10437;48.156;11.530;2022-08-21T07:46:25;2.53;;;1.85;;
20557;SDS011;10437;48.156;11.530;2022-08-21T07:48:53;2.80;;;1.90;;
20557;SDS011;10437;48.156;11.530;2022-08-21T07:51:20;2.55;;;1.60;;
20557;SDS011;10437;48.156;11.530;2022-08-21T07:53:50;3.15;;;1.92;;
20557;SDS011;10437;48.156;11.530;2022-08-21T07:56:20;5.00;;;1.92;;
20557;SDS011;10437;48.156;11.530;2022-08-21T07:58:47;3.67;;;1.98;;
20557;SDS011;10437;48.156;11.530;2022-08-21T08:01:14;3.97;;;2.20;;
20557;SDS011;10437;48.156;11.530;2022-08-21T08:03:41;3.35;;;2.30;;
20557;SDS011;10437;48.156;11.530;2022-08-21T08:06:10;4.25;;;2.30;;
20557;SDS011;10437;48.156;11.530;2022-08-21T08:08:38;2.63;;;2.10;;
20557;SDS011;10437;48.156;11.530;2022-08-21T08:11:06;2.50;;;1.90;;
20557;SDS011;10437;48.156;11.530;2022-08-21T08:13:39;3.70;;;2.55;;
20557;SDS011;10437;48.156;11.530;2022-08-21T08:16:06;5.03;;;2.15;;
20557;SDS011;10437;48.156;11.530;2022-08-21T08:18:33;3.03;;;2.03;;
20557;SDS011;10437;48.156;11.530;2022-08-21T08:21:01;3.38;;;2.05;;
20557;SDS011;10437;48.156;11.530;2022-08-21T08:23:28;4.93;;;2.40;;
20557;SDS011;10437;48.156;11.530;2022-08-21T08:25:55;2.40;;;2.15;;
20557;SDS011;10437;48.156;11.530;2022-08-21T08:28:22;8.15;;;2.33;;
20557;SDS011;10437;48.156;11.530;2022-08-21T08:30:51;5.35;;;1.95;;
20557;SDS011;10437;48.156;11.530;2022-08-21T08:33:18;2.63;;;2.17;;
20557;SDS011;10437;48.156;11.530;2022-08-21T08:35:45;3.20;;;2.00;;
20557;SDS011;10437;48.156;11.530;2022-08-21T08:38:14;3.78;;;2.47;;
20557;SDS011;10437;48.156;11.530;2022-08-21T08:40:44;4.68;;;1.98;;
20557;SDS011;10437;48.156;11.530;2022-08-21T08:43:16;3.72;;;2.20;;
20557;SDS011;10437;48.156;11.530;2022-08-21T08:45:45;4.32;;;1.90;;
20557;SDS011;10437;48.156;11.530;2022-08-21T08:48:17;3.90;;;2.00;;
20557;SDS011;10437;48.156;11.530;2022-08-21T08:50:58;3.00;;;2.17;;
20557;SDS011;10437;48.156;11.530;2022-08-21T08:53:28;3.95;;;2.17;;
20557;SDS011;10437;48.156;11.530;2022-08-21T08:55:57;2.80;;;2.03;;
20557;SDS011;10437;48.156;11.530;2022-08-21T08:58:26;3.22;;;2.17;;
20557;SDS011;10437;48.156;11.530;2022-08-21T09:00:56;5.30;;;2.00;;
20557;SDS011;10437;48.156;11.530;2022-08-21T09:03:25;4.72;;;2.00;;
20557;SDS011;10437;48.156;11.530;2022-08-21T09:05:55;3.08;;;2.35;;
20557;SDS011;10437;48.156;11.530;2022-08-21T09:08:33;3.53;;;1.98;;
20557;SDS011;10437;48.156;11.530;2022-08-21T09:11:15;2.88;;;2.08;;
20557;SDS011;10437;48.156;11.530;2022-08-21T09:13:54;3.47;;;2.28;;
20557;SDS011;10437;48.156;11.530;2022-08-21T09:16:29;3.00;;;2.30;;
20557;SDS011;10437;48.156;11.530;2022-08-21T09:19:07;13.68;;;2.42;;
20557;SDS011;10437;48.156;11.530;2022-08-21T09:21:51;3.30;;;2.50;;
20557;SDS011;10437;48.156;11.530;2022-08-21T09:24:26;5.45;;;2.25;;
20557;SDS011;10437;48.156;11.530;2022-08-21T09:27:00;4.88;;;2.40;;
20557;SDS011;10437;48.156;11.530;2022-08-21T09:29:31;2.70;;;1.92;;
20557;SDS011;10437;48.156;11.530;2022-08-21T09:32:01;3.25;;;2.25;;
20557;SDS011;10437;48.156;11.530;2022-08-21T09:34:31;3.65;;;2.40;;
20557;SDS011;10437;48.156;11.530;2022-08-21T09:36:58;3.47;;;2.38;;
20557;SDS011;10437;48.156;11.530;2022-08-21T09:39:26;2.78;;;2.13;;
20557;SDS011;10437;48.156;11.530;2022-08-21T09:41:56;4.80;;;2.63;;
20557;SDS011;10437;48.156;11.530;2022-08-21T09:44:25;3.17;;;2.30;;
20557;SDS011;10437;48.156;11.530;2022-08-21T09:46:53;3.25;;;2.10;;
20557;SDS011;10437;48.156;11.530;2022-08-21T09:49:27;6.25;;;2.30;;
20557;SDS011;10437;48.156;11.530;2022-08-21T09:51:56;4.22;;;2.10;;
20557;SDS011;10437;48.156;11.530;2022-08-21T09:54:26;3.80;;;1.63;;
20557;SDS011;10437;48.156;11.530;2022-08-21T09:56:57;3.05;;;2.00;;
20557;SDS011;10437;48.156;11.530;2022-08-21T09:59:44;2.63;;;2.28;;
20557;SDS011;10437;48.156;11.530;2022-08-21T10:02:23;2.17;;;1.98;;
20557;SDS011;10437;48.156;11.530;2022-08-21T10:04:53;3.22;;;2.22;;
20557;SDS011;10437;48.156;11.530;2022-08-21T10:07:24;3.55;;;2.50;;
20557;SDS011;10437;48.156;11.530;2022-08-21T10:10:00;3.38;;;2.30;;
20557;SDS011;10437;48.156;11.530;2022-08-21T10:12:31;2.83;;;1.98;;
20557;SDS011;10437;48.156;11.530;2022-08-21T10:15:08;3.15;;;2.40;;
20557;SDS011;10437;48.156;11.530;2022-08-21T10:17:43;2.55;;;2.00;;
20557;SDS011;10437;48.156;11.530;2022-08-21T10:20:17;4.85;;;2.65;;
20557;SDS011;10437;48.156;11.530;2022-08-21T10:22:52;3.08;;;2.05;;
20557;SDS011;10437;48.156;11.530;2022-08-21T10:25:30;3.03;;;2.10;;
20557;SDS011;10437;48.156;11.530;2022-08-21T10:28:03;9.20;;;2.38;;
20557;SDS011;10437;48.156;11.530;2022-08-21T10:30:36;4.72;;;2.65;;
20557;SDS011;10437;48.156;11.530;2022-08-21T10:33:19;4.05;;;2.20;;
20557;SDS011;10437;48.156;11.530;2022-08-21T10:35:56;5.07;;;2.70;;
20557;SDS011;10437;48.156;11.530;2022-08-21T10:38:41;6.60;;;2.60;;
20557;SDS011;10437;48.156;11.530;2022-08-21T10:41:20;5.13;;;2.80;;
20557;SDS011;10437;48.156;11.530;2022-08-21T10:43:57;3.55;;;2.50;;
20557;SDS011;10437;48.156;11.530;2022-08-21T10:46:32;2.92;;;2.10;;
20557;SDS011;10437;48.156;11.530;2022-08-21T10:49:11;3.97;;;2.33;;
20557;SDS011;10437;48.156;11.530;2022-08-21T10:51:46;3.55;;;2.42;;
20557;SDS011;10437;48.156;11.530;2022-08-21T10:54:24;4.60;;;2.05;;
20557;SDS011;10437;48.156;11.530;2022-08-21T10:57:00;3.17;;;2.20;;
20557;SDS011;10437;48.156;11.530;2022-08-21T10:59:33;3.53;;;2.15;;
20557;SDS011;10437;48.156;11.530;2022-08-21T11:02:12;6.45;;;2.15;;
20557;SDS011;10437;48.156;11.530;2022-08-21T11:04:47;4.95;;;2.45;;
20557;SDS011;10437;48.156;11.530;2022-08-21T11:07:21;3.92;;;2.40;;
20557;SDS011;10437;48.156;11.530;2022-08-21T11:09:59;3.28;;;2.60;;
20557;SDS011;10437;48.156;11.530;2022-08-21T11:12:31;6.63;;;3.22;;
20557;SDS011;10437;48.156;11.530;2022-08-21T11:15:07;7.85;;;2.90;;
20557;SDS011;10437;48.156;11.530;2022-08-21T11:17:47;6.95;;;2.75;;
20557;SDS011;10437;48.156;11.530;2022-08-21T11:20:21;3.42;;;2.65;;
20557;SDS011;10437;48.156;11.530;2022-08-21T11:22:54;3.72;;;2.90;;
20557;SDS011;10437;48.156;11.530;2022-08-21T11:25:29;5.72;;;3.00;;
20557;SDS011;10437;48.156;11.530;2022-08-21T11:28:02;4.28;;;2.50;;
20557;SDS011;10437;48.156;11.530;2022-08-21T11:30:38;4.18;;;2.50;;
20557;SDS011;10437;48.156;11.530;2022-08-21T11:33:17;4.45;;;2.47;;
20557;SDS011;10437;48.156;11.530;2022-08-21T11:35:57;5.63;;;2.33;;
20557;SDS011;10437;48.156;11.530;2022-08-21T11:38:33;4.63;;;2.63;;
20557;SDS011;10437;48.156;11.530;2022-08-21T11:41:07;3.67;;;2.60;;
20557;SDS011;10437;48.156;11.530;2022-08-21T11:43:43;4.75;;;2.25;;
20557;SDS011;10437;48.156;11.530;2022-08-21T11:46:15;4.93;;;2.30;;
20557;SDS011;10437;48.156;11.530;2022-08-21T11:49:08;3.28;;;2.30;;
20557;SDS011;10437;48.156;11.530;2022-08-21T11:51:48;2.83;;;2.03;;
20557;SDS011;10437;48.156;11.530;2022-08-21T11:54:21;5.05;;;2.10;;
20557;SDS011;10437;48.156;11.530;2022-08-21T11:56:57;3.53;;;2.10;;
20557;SDS011;10437;48.156;11.530;2022-08-21T11:59:32;4.03;;;2.08;;
20557;SDS011;10437;48.156;11.530;2022-08-21T12:02:02;3.38;;;2.30;;
20557;SDS011;10437;48.156;11.530;2022-08-21T12:04:35;3.05;;;2.10;;
20557;SDS011;10437;48.156;11.530;2022-08-21T12:07:11;4.22;;;2.00;;
20557;SDS011;10437;48.156;11.530;2022-08-21T12:09:39;4.88;;;2.42;;
20557;SDS011;10437;48.156;11.530;2022-08-21T12:12:12;4.88;;;1.90;;
20557;SDS011;10437;48.156;11.530;2022-08-21T12:14:50;9.98;;;2.38;;
20557;SDS011;10437;48.156;11.530;2022-08-21T12:17:34;2.90;;;1.83;;
20557;SDS011;10437;48.156;11.530;2022-08-21T12:20:16;4.28;;;2.00;;
20557;SDS011;10437;48.156;11.530;2022-08-21T12:23:03;2.40;;;1.85;;
20557;SDS011;10437;48.156;11.530;2022-08-21T12:25:42;3.45;;;1.77;;
20557;SDS011;10437;48.156;11.530;2022-08-21T12:28:14;2.10;;;1.65;;
20557;SDS011;10437;48.156;11.530;2022-08-21T12:30:47;2.55;;;1.75;;
20557;SDS011;10437;48.156;11.530;2022-08-21T12:33:20;2.45;;;1.63;;
20557;SDS011;10437;48.156;11.530;2022-08-21T12:35:50;3.33;;;1.83;;
20557;SDS011;10437;48.156;11.530;2022-08-21T12:38:28;2.83;;;1.90;;
20557;SDS011;10437;48.156;11.530;2022-08-21T12:40:57;3.97;;;1.90;;
20557;SDS011;10437;48.156;11.530;2022-08-21T12:43:30;4.00;;;2.00;;
20557;SDS011;10437;48.156;11.530;2022-08-21T12:46:00;2.88;;;2.17;;
20557;SDS011;10437;48.156;11.530;2022-08-21T12:48:31;2.92;;;1.95;;
20557;SDS011;10437;48.156;11.530;2022-08-21T12:51:05;3.60;;;2.00;;
20557;SDS011;10437;48.156;11.530;2022-08-21T12:53:41;2.72;;;2.08;;
20557;SDS011;10437;48.156;11.530;2022-08-21T12:56:14;3.75;;;1.98;;
20557;SDS011;10437;48.156;11.530;2022-08-21T12:58:46;3.72;;;2.30;;
20557;SDS011;10437;48.156;11.530;2022-08-21T13:01:17;3.85;;;1.83;;
20557;SDS011;10437;48.156;11.530;2022-08-21T13:03:49;4.18;;;2.00;;
20557;SDS011;10437;48.156;11.530;2022-08-21T13:06:17;3.03;;;2.00;;
20557;SDS011;10437;48.156;11.530;2022-08-21T13:08:46;3.35;;;1.70;;
20557;SDS011;10437;48.156;11.530;2022-08-21T13:11:18;2.38;;;1.75;;
20557;SDS011;10437;48.156;11.530;2022-08-21T13:13:49;2.30;;;1.65;;
20557;SDS011;10437;48.156;11.530;2022-08-21T13:16:18;2.65;;;1.92;;
20557;SDS011;10437;48.156;11.530;2022-08-21T13:18:53;1.85;;;1.60;;
20557;SDS011;10437;48.156;11.530;2022-08-21T13:21:26;4.40;;;1.90;;
20557;SDS011;10437;48.156;11.530;2022-08-21T13:24:06;4.45;;;2.00;;
20557;SDS011;10437;48.156;11.530;2022-08-21T13:26:36;2.83;;;1.85;;
20557;SDS011;10437;48.156;11.530;2022-08-21T13:29:07;5.35;;;2.10;;
20557;SDS011;10437;48.156;11.530;2022-08-21T13:31:36;2.28;;;1.83;;
20557;SDS011;10437;48.156;11.530;2022-08-21T13:34:07;3.20;;;2.13;;
20557;SDS011;10437;48.156;11.530;2022-08-21T13:36:35;2.45;;;1.92;;
20557;SDS011;10437;48.156;11.530;2022-08-21T13:39:05;2.55;;;2.00;;
20557;SDS011;10437;48.156;11.530;2022-08-21T13:41:35;3.63;;;1.92;;
20557;SDS011;10437;48.156;11.530;2022-08-21T13:44:05;2.70;;;1.80;;
20557;SDS011;10437;48.156;11.530;2022-08-21T13:46:40;2.63;;;1.88;;
20557;SDS011;10437;48.156;11.530;2022-08-21T13:49:09;3.65;;;1.98;;
20557;SDS011;10437;48.156;11.530;2022-08-21T13:51:38;5.18;;;1.95;;
20557;SDS011;10437;48.156;11.530;2022-08-21T13:54:13;6.10;;;2.03;;
20557;SDS011;10437;48.156;11.530;2022-08-21T13:56:42;2.42;;;1.80;;
20557;SDS011;10437;48.156;11.530;2022-08-21T13:59:14;2.88;;;1.60;;
20557;SDS011;10437;48.156;11.530;2022-08-21T14:01:51;2.20;;;1.85;;
20557;SDS011;10437;48.156;11.530;2022-08-21T14:04:24;3.08;;;2.03;;
20557;SDS011;10437;48.156;11.530;2022-08-21T14:06:53;2.42;;;1.73;;
20557;SDS011;10437;48.156;11.530;2022-08-21T14:09:22;3.28;;;1.70;;
20557;SDS011;10437;48.156;11.530;2022-08-21T14:11:53;3.88;;;1.70;;
20557;SDS011;10437;48.156;11.530;2022-08-21T14:14:24;2.55;;;1.92;;
20557;SDS011;10437;48.156;11.530;2022-08-21T14:16:54;4.80;;;1.90;;
20557;SDS011;10437;48.156;11.530;2022-08-21T14:19:23;2.45;;;1.75;;
20557;SDS011;10437;48.156;11.530;2022-08-21T14:21:51;2.55;;;1.90;;
20557;SDS011;10437;48.156;11.530;2022-08-21T14:24:26;3.38;;;1.90;;
20557;SDS011;10437;48.156;11.530;2022-08-21T14:26:56;4.45;;;1.70;;
20557;SDS011;10437;48.156;11.530;2022-08-21T14:29:34;2.85;;;1.98;;
20557;SDS011;10437;48.156;11.530;2022-08-21T14:32:08;3.50;;;2.05;;
20557;SDS011;10437;48.156;11.530;2022-08-21T14:34:38;2.60;;;1.88;;
20557;SDS011;10437;48.156;11.530;2022-08-21T14:37:05;3.53;;;1.77;;
20557;SDS011;10437;48.156;11.530;2022-08-21T14:39:32;2.97;;;1.60;;
20557;SDS011;10437;48.156;11.530;2022-08-21T14:42:00;3.20;;;1.70;;
20557;SDS011;10437;48.156;11.530;2022-08-21T14:44:27;4.32;;;1.98;;
20557;SDS011;10437;48.156;11.530;2022-08-21T14:46:55;6.55;;;2.10;;
20557;SDS011;10437;48.156;11.530;2022-08-21T14:49:26;3.33;;;1.85;;